Time;durP1;ratioP1;P1;durP2;ratioP2;P2;SDS_P1;SDS_P2;PMS_P1;PMS_P2;Temp;Humidity;BMP_temperature;BMP_pressure;BME280_temperature;BME280_humidity;BME280_pressure;Samples;Min_cycle;Max_cycle;Signal;HPM_P1;HPM_P2
2023/09/07 00:01:04;;;;;;;6.25;4.32;;;21.30;66.90;;;;;;9177869;19;20345;-66
2023/09/07 00:04:12;;;;;;;9.50;4.13;;;21.30;67.00;;;;;;9179061;19;20026;-67
2023/09/07 00:07:18;;;;;;;7.00;3.67;;;21.20;67.00;;;;;;9178267;19;20057;-65
2023/09/07 00:10:26;;;;;;;7.35;4.05;;;21.20;67.10;;;;;;9177602;19;20495;-68
2023/09/07 00:13:34;;;;;;;7.03;4.45;;;21.20;67.20;;;;;;9179503;19;20463;-68
2023/09/07 00:16:45;;;;;;;;;;;21.10;67.30;;;;;;9176008;19;20015;-67
2023/09/07 00:19:52;;;;;;;5.88;3.78;;;21.10;67.00;;;;;;9177407;19;19933;-67
2023/09/07 00:23:00;;;;;;;7.72;3.85;;;21.10;67.10;;;;;;9176669;19;20021;-68
2023/09/07 00:26:05;;;;;;;8.80;4.38;;;21.00;67.20;;;;;;9172505;19;20041;-66
2023/09/07 00:29:15;;;;;;;8.40;4.55;;;21.00;67.40;;;;;;9176195;19;20014;-66
2023/09/07 00:32:20;;;;;;;6.78;3.60;;;21.00;67.50;;;;;;9176752;19;20014;-66
2023/09/07 00:35:28;;;;;;;9.77;4.68;;;21.00;67.50;;;;;;9176220;19;20007;-66
2023/09/07 00:38:33;;;;;;;5.60;3.70;;;20.90;68.20;;;;;;9176079;19;20119;-66
2023/09/07 00:41:41;;;;;;;4.70;4.10;;;20.90;67.70;;;;;;9174859;19;20018;-66
2023/09/07 00:44:50;;;;;;;9.02;4.43;;;20.90;67.70;;;;;;9177386;19;20015;-66
2023/09/07 00:47:57;;;;;;;10.55;3.78;;;20.90;67.90;;;;;;9177084;19;20025;-67
2023/09/07 00:51:03;;;;;;;4.88;3.78;;;20.80;67.90;;;;;;9175342;19;20090;-67
2023/09/07 00:54:10;;;;;;;6.00;3.83;;;20.80;67.90;;;;;;9176326;19;20018;-67
2023/09/07 00:57:16;;;;;;;7.22;4.07;;;20.80;68.00;;;;;;9175110;19;20332;-66
2023/09/07 01:00:26;;;;;;;5.05;3.88;;;20.80;68.10;;;;;;9177182;19;20025;-67
2023/09/07 01:03:31;;;;;;;10.13;3.60;;;20.70;68.20;;;;;;9175134;19;20015;-68
2023/09/07 01:06:42;;;;;;;12.57;4.03;;;20.70;68.10;;;;;;9175088;19;20018;-67
2023/09/07 01:09:51;;;;;;;6.88;3.85;;;20.70;68.20;;;;;;9174620;19;20539;-66
2023/09/07 01:12:58;;;;;;;10.85;4.07;;;20.70;68.30;;;;;;9175591;19;20022;-67
2023/09/07 01:16:07;;;;;;;8.95;4.18;;;20.60;68.30;;;;;;9175991;19;20026;-67
2023/09/07 01:19:14;;;;;;;5.97;3.92;;;20.60;68.40;;;;;;9174753;19;20010;-67
2023/09/07 01:22:24;;;;;;;7.30;3.70;;;20.60;68.40;;;;;;9175800;19;20667;-66
2023/09/07 01:25:32;;;;;;;13.15;3.85;;;20.60;68.50;;;;;;9174111;19;20019;-67
2023/09/07 01:28:37;;;;;;;6.93;4.25;;;20.60;68.50;;;;;;9169108;19;20487;-68
2023/09/07 01:31:45;;;;;;;6.88;4.07;;;20.50;68.50;;;;;;9174097;19;20077;-68
2023/09/07 01:34:52;;;;;;;4.00;3.08;;;20.60;68.60;;;;;;9175992;19;20017;-67
2023/09/07 01:38:02;;;;;;;9.32;3.70;;;20.50;68.60;;;;;;9173626;19;20113;-67
2023/09/07 01:41:07;;;;;;;6.22;4.28;;;20.50;68.70;;;;;;9172523;19;20396;-66
2023/09/07 01:44:15;;;;;;;10.07;3.85;;;20.50;68.70;;;;;;9173196;19;20018;-67
2023/09/07 01:47:20;;;;;;;6.15;3.75;;;20.50;68.70;;;;;;9173653;19;20019;-67
2023/09/07 01:50:28;;;;;;;5.20;3.67;;;20.40;68.80;;;;;;9173954;19;20015;-67
2023/09/07 01:53:36;;;;;;;7.53;4.35;;;20.50;68.80;;;;;;9174557;19;20129;-67
2023/09/07 01:56:43;;;;;;;5.63;3.90;;;20.40;68.90;;;;;;9172945;19;20015;-67
2023/09/07 01:59:49;;;;;;;7.95;3.58;;;20.40;68.90;;;;;;9169437;19;20048;-67
2023/09/07 02:02:56;;;;;;;7.95;5.00;;;20.40;69.00;;;;;;9166495;19;20096;-67
2023/09/07 02:06:02;;;;;;;6.57;4.05;;;20.40;69.10;;;;;;9174651;19;20019;-67
2023/09/07 02:09:12;;;;;;;8.48;4.22;;;20.30;69.00;;;;;;9175418;19;20018;-67
2023/09/07 02:12:17;;;;;;;5.88;3.55;;;20.30;69.10;;;;;;9183273;19;20015;-67
2023/09/07 02:15:24;;;;;;;9.25;3.88;;;20.30;69.10;;;;;;9183807;19;20018;-67
2023/09/07 02:18:30;;;;;;;10.00;4.15;;;20.30;69.10;;;;;;9182997;19;20381;-68
2023/09/07 02:21:38;;;;;;;8.20;4.40;;;20.30;69.20;;;;;;9182848;19;20022;-67
2023/09/07 02:24:46;;;;;;;6.32;3.63;;;20.30;69.20;;;;;;9182896;19;20022;-67
2023/09/07 02:27:53;;;;;;;5.18;3.65;;;20.20;69.30;;;;;;9176964;19;20733;-67
2023/09/07 02:31:05;;;;;;;6.40;4.53;;;20.20;69.20;;;;;;9183415;19;20029;-67
2023/09/07 02:34:13;;;;;;;6.93;4.07;;;20.20;69.40;;;;;;9180698;19;20031;-68
2023/09/07 02:37:18;;;;;;;6.50;4.85;;;20.20;69.30;;;;;;9180925;19;20098;-69
2023/09/07 02:40:28;;;;;;;6.32;4.28;;;20.10;69.30;;;;;;9180859;19;20025;-67
2023/09/07 02:43:34;;;;;;;7.75;4.22;;;20.10;69.40;;;;;;9180980;19;20393;-67
2023/09/07 02:46:42;;;;;;;6.97;4.60;;;20.10;69.40;;;;;;9183422;19;20018;-67
2023/09/07 02:49:47;;;;;;;8.98;4.32;;;20.00;69.40;;;;;;9179491;19;20508;-67
2023/09/07 02:52:55;;;;;;;6.60;4.28;;;20.00;69.50;;;;;;9181202;19;20022;-67
2023/09/07 02:56:04;;;;;;;7.15;4.07;;;20.00;69.60;;;;;;9179750;19;20022;-67
2023/09/07 02:59:11;;;;;;;7.65;4.40;;;19.90;69.60;;;;;;9180294;19;20015;-67
2023/09/07 03:02:17;;;;;;;8.65;4.20;;;19.90;69.60;;;;;;9181976;19;20014;-67
2023/09/07 03:05:24;;;;;;;9.30;4.25;;;19.90;69.70;;;;;;9180538;19;20018;-67
2023/09/07 03:08:30;;;;;;;7.35;4.55;;;19.80;69.70;;;;;;9179383;19;20479;-67
2023/09/07 03:11:40;;;;;;;6.18;4.03;;;19.80;69.80;;;;;;9180372;19;20503;-67
2023/09/07 03:14:46;;;;;;;9.10;4.38;;;19.70;69.80;;;;;;9180250;19;20049;-67
2023/09/07 03:17:54;;;;;;;9.98;5.45;;;19.70;69.80;;;;;;9181229;19;20029;-67
2023/09/07 03:21:02;;;;;;;9.52;4.40;;;19.70;69.90;;;;;;9178456;19;20052;-66
2023/09/07 03:24:10;;;;;;;9.80;5.00;;;19.70;70.00;;;;;;9178642;19;20014;-67
2023/09/07 03:27:18;;;;;;;6.30;4.25;;;19.70;70.60;;;;;;9176902;19;20460;-67
2023/09/07 03:30:25;;;;;;;11.18;4.75;;;19.60;70.00;;;;;;9172719;19;20010;-67
2023/09/07 03:33:32;;;;;;;10.13;4.90;;;19.60;70.00;;;;;;9177986;19;20019;-67
2023/09/07 03:36:40;;;;;;;8.02;4.40;;;19.50;70.10;;;;;;9178335;19;20032;-66
2023/09/07 03:39:46;;;;;;;7.90;3.83;;;19.50;70.10;;;;;;9175466;19;20026;-67
2023/09/07 03:42:56;;;;;;;7.35;4.65;;;19.50;70.10;;;;;;9177454;19;20380;-67
2023/09/07 03:46:04;;;;;;;7.22;4.88;;;19.50;70.30;;;;;;9178557;19;20018;-67
2023/09/07 03:49:11;;;;;;;6.88;4.80;;;19.50;70.20;;;;;;9180334;19;20014;-67
2023/09/07 03:52:17;;;;;;;15.40;5.78;;;19.40;70.20;;;;;;9178123;19;20866;-68
2023/09/07 03:55:24;;;;;;;9.93;4.80;;;19.40;70.30;;;;;;9178582;19;20494;-67
2023/09/07 03:58:33;;;;;;;9.48;4.78;;;19.40;70.30;;;;;;9178004;19;20464;-68
2023/09/07 04:01:41;;;;;;;8.60;4.90;;;19.40;70.40;;;;;;9177702;19;20015;-67
2023/09/07 04:04:50;;;;;;;8.15;5.30;;;19.40;70.40;;;;;;9179547;19;20024;-67
2023/09/07 04:07:59;;;;;;;7.38;5.03;;;19.30;70.50;;;;;;9177816;19;20014;-67
2023/09/07 04:11:06;;;;;;;7.57;4.97;;;19.30;70.50;;;;;;9177328;19;20367;-67
2023/09/07 04:14:17;;;;;;;9.50;5.55;;;19.30;70.60;;;;;;9179430;19;20476;-67
2023/09/07 04:17:22;;;;;;;8.70;5.00;;;19.30;70.60;;;;;;9178433;19;20025;-67
2023/09/07 04:20:30;;;;;;;27.77;5.50;;;19.20;70.50;;;;;;9176846;19;20014;-66
2023/09/07 04:23:36;;;;;;;9.95;4.90;;;19.20;70.60;;;;;;9178798;19;20050;-67
2023/09/07 04:26:44;;;;;;;8.07;4.63;;;19.20;70.60;;;;;;9171439;19;20026;-67
2023/09/07 04:29:53;;;;;;;9.75;5.60;;;19.20;70.60;;;;;;9175964;19;20057;-67
2023/09/07 04:33:01;;;;;;;13.85;5.50;;;19.10;70.60;;;;;;9172162;19;20523;-67
2023/09/07 04:36:10;;;;;;;14.50;5.57;;;19.10;70.60;;;;;;9177277;19;20018;-67
2023/09/07 04:39:19;;;;;;;10.63;5.35;;;19.10;70.70;;;;;;9175671;19;20006;-67
2023/09/07 04:42:25;;;;;;;12.48;5.50;;;19.10;70.60;;;;;;9176963;19;20010;-67
2023/09/07 04:45:35;;;;;;;7.70;5.18;;;19.10;70.70;;;;;;9175748;19;20022;-67
2023/09/07 04:48:41;;;;;;;12.23;5.57;;;19.10;70.80;;;;;;9176253;19;20006;-66
2023/09/07 04:51:49;;;;;;;15.38;5.45;;;19.00;70.70;;;;;;9176088;19;20023;-67
2023/09/07 04:54:55;;;;;;;14.63;5.63;;;19.00;70.70;;;;;;9176269;19;20663;-67
2023/09/07 04:58:02;;;;;;;10.48;6.15;;;19.00;70.70;;;;;;9176338;19;20022;-67
2023/09/07 05:01:12;;;;;;;9.05;5.63;;;18.90;70.80;;;;;;9175186;19;20712;-67
2023/09/07 05:04:21;;;;;;;8.82;5.85;;;18.90;70.90;;;;;;9175465;19;20018;-67
2023/09/07 05:07:28;;;;;;;11.25;5.88;;;18.90;70.80;;;;;;9175593;19;20038;-67
2023/09/07 05:10:36;;;;;;;11.18;5.57;;;18.90;71.60;;;;;;9173882;19;21182;-67
2023/09/07 05:13:41;;;;;;;9.63;5.85;;;18.80;70.90;;;;;;9174934;19;20007;-67
2023/09/07 05:16:52;;;;;;;11.10;6.25;;;18.80;71.00;;;;;;9174926;19;20018;-67
2023/09/07 05:19:58;;;;;;;12.65;5.72;;;18.80;71.10;;;;;;9174681;19;20014;-67
2023/09/07 05:23:06;;;;;;;11.68;5.50;;;18.80;71.00;;;;;;9173204;19;20010;-67
2023/09/07 05:26:12;;;;;;;9.00;6.45;;;18.80;71.10;;;;;;9171275;19;20025;-67
2023/09/07 05:29:20;;;;;;;9.55;6.10;;;18.80;71.10;;;;;;9176408;19;20007;-68
2023/09/07 05:32:28;;;;;;;17.85;6.00;;;18.80;71.30;;;;;;9172148;19;20117;-67
2023/09/07 05:35:36;;;;;;;11.43;5.72;;;18.70;71.30;;;;;;9165372;19;20010;-67
2023/09/07 05:38:41;;;;;;;11.70;6.40;;;18.70;71.30;;;;;;9174383;19;20022;-67
2023/09/07 05:41:51;;;;;;;10.80;6.22;;;18.70;71.30;;;;;;9173202;19;20015;-67
2023/09/07 05:44:57;;;;;;;12.50;6.45;;;18.70;71.30;;;;;;9181555;19;20011;-67
2023/09/07 05:48:08;;;;;;;10.57;5.72;;;18.80;71.40;;;;;;9184167;19;20029;-66
2023/09/07 05:51:14;;;;;;;17.15;6.30;;;18.70;71.40;;;;;;9181330;19;20081;-67
2023/09/07 05:54:22;;;;;;;9.40;5.90;;;18.70;71.40;;;;;;9182257;19;20078;-67
2023/09/07 05:57:27;;;;;;;9.77;6.18;;;18.70;71.50;;;;;;9182593;19;20014;-67
2023/09/07 06:00:37;;;;;;;11.00;5.82;;;18.70;71.50;;;;;;9182108;19;20018;-67
2023/09/07 06:03:45;;;;;;;8.23;5.68;;;18.80;71.70;;;;;;9182767;19;20022;-67
2023/09/07 06:06:53;;;;;;;10.82;5.65;;;18.80;71.80;;;;;;9177734;19;20022;-68
2023/09/07 06:09:59;;;;;;;10.95;6.32;;;18.80;71.80;;;;;;9166543;19;20030;-67
2023/09/07 06:13:06;;;;;;;7.70;5.82;;;18.90;71.90;;;;;;9164982;19;20887;-68
2023/09/07 06:16:12;;;;;;;10.68;5.53;;;19.00;72.00;;;;;;9165022;19;20074;-67
2023/09/07 06:19:22;;;;;;;8.75;5.25;;;19.10;72.10;;;;;;9162584;19;20022;-68
2023/09/07 06:22:28;;;;;;;8.07;5.22;;;19.20;72.20;;;;;;9161747;19;20820;-67
2023/09/07 06:25:35;;;;;;;10.88;5.80;;;19.40;72.10;;;;;;9169093;19;20002;-69
2023/09/07 06:28:41;;;;;;;11.30;5.15;;;19.50;72.10;;;;;;9171250;19;20022;-70
2023/09/07 06:31:52;;;;;;;7.93;5.93;;;19.70;72.10;;;;;;9170772;19;20015;-71
2023/09/07 06:35:02;;;;;;;10.18;6.25;;;19.80;72.00;;;;;;9171986;19;20360;-69
2023/09/07 06:38:10;;;;;;;8.45;5.43;;;20.00;72.00;;;;;;9171452;19;20014;-71
2023/09/07 06:41:19;;;;;;;10.70;6.22;;;20.20;71.90;;;;;;9165064;19;20376;-71
2023/09/07 06:44:27;;;;;;;10.90;5.82;;;20.40;71.80;;;;;;9176017;19;20008;-71
2023/09/07 06:47:33;;;;;;;9.88;5.75;;;20.50;71.70;;;;;;9172120;19;20454;-70
2023/09/07 06:50:44;;;;;;;9.20;5.80;;;20.70;71.60;;;;;;9173103;19;20014;-72
2023/09/07 06:53:50;;;;;;;8.30;5.30;;;20.90;71.60;;;;;;9171637;19;20019;-70
2023/09/07 06:57:05;;;;;;;7.90;5.50;;;21.10;71.40;;;;;;9171820;19;20598;-71
2023/09/07 07:00:12;;;;;;;8.00;5.55;;;21.30;71.20;;;;;;9170777;19;20114;-69
2023/09/07 07:03:20;;;;;;;10.48;5.05;;;21.50;71.10;;;;;;9175443;19;20011;-72
2023/09/07 07:06:28;;;;;;;8.98;5.18;;;21.70;70.80;;;;;;9172098;19;20460;-70
2023/09/07 07:09:36;;;;;;;9.65;5.18;;;21.90;70.60;;;;;;9174804;19;20025;-69
2023/09/07 07:12:42;;;;;;;10.05;4.63;;;22.10;70.40;;;;;;9174143;19;20050;-69
2023/09/07 07:15:49;;;;;;;13.05;4.85;;;22.30;70.20;;;;;;9169834;19;20765;-74
2023/09/07 07:18:54;;;;;;;9.52;5.03;;;22.50;70.00;;;;;;9176175;19;20545;-73
2023/09/07 07:22:05;;;;;;;8.65;5.10;;;22.60;69.70;;;;;;9176250;19;20022;-74
2023/09/07 07:25:13;;;;;;;6.35;4.68;;;22.80;69.50;;;;;;9168118;19;20045;-74
2023/09/07 07:28:21;;;;;;;6.25;4.53;;;22.90;69.30;;;;;;9177114;19;20002;-73
2023/09/07 07:31:27;;;;;;;9.73;4.70;;;23.00;69.10;;;;;;9174799;19;20022;-76
2023/09/07 07:34:34;;;;;;;7.30;5.00;;;23.10;68.90;;;;;;9177524;19;20468;-73
2023/09/07 07:37:42;;;;;;;8.32;5.22;;;23.10;68.70;;;;;;9175152;19;20019;-69
2023/09/07 07:40:50;;;;;;;11.05;4.53;;;23.20;68.60;;;;;;9175877;19;20010;-71
2023/09/07 07:43:55;;;;;;;7.47;4.88;;;23.20;68.60;;;;;;9177148;19;20019;-70
2023/09/07 07:47:04;;;;;;;7.80;4.90;;;23.30;68.60;;;;;;9172337;19;20536;-69
2023/09/07 07:50:10;;;;;;;13.35;5.10;;;23.30;68.50;;;;;;9169520;19;20029;-67
2023/09/07 07:53:21;;;;;;;10.27;5.18;;;23.30;68.50;;;;;;9175569;19;20649;-71
2023/09/07 07:56:27;;;;;;;10.30;4.80;;;23.40;68.50;;;;;;9173679;19;20015;-70
2023/09/07 07:59:38;;;;;;;6.50;4.65;;;23.40;68.50;;;;;;9156228;19;20034;-70
2023/09/07 08:02:43;;;;;;;12.00;5.38;;;23.40;68.50;;;;;;9163504;19;20017;-70
2023/09/07 08:05:52;;;;;;;8.80;4.90;;;23.50;68.50;;;;;;9166628;19;20022;-70
2023/09/07 08:09:01;;;;;;;9.20;5.13;;;23.50;68.40;;;;;;9166652;19;20022;-70
2023/09/07 08:12:09;;;;;;;8.45;5.00;;;23.60;68.50;;;;;;9168403;19;20006;-69
2023/09/07 08:15:15;;;;;;;9.75;4.72;;;23.60;68.40;;;;;;9174278;19;20022;-69
2023/09/07 08:18:23;;;;;;;6.75;5.05;;;23.70;68.30;;;;;;9174631;19;20014;-70
2023/09/07 08:21:29;;;;;;;6.88;4.63;;;23.80;68.30;;;;;;9171887;19;20029;-70
2023/09/07 08:24:40;;;;;;;10.82;4.72;;;23.90;68.80;;;;;;9165312;19;20022;-72
2023/09/07 08:27:47;;;;;;;9.38;5.28;;;24.00;68.00;;;;;;9169168;19;20082;-71
2023/09/07 08:30:55;;;;;;;6.03;4.22;;;24.20;68.00;;;;;;9172341;19;20703;-72
2023/09/07 08:34:03;;;;;;;9.68;4.72;;;24.30;67.80;;;;;;9168351;19;20034;-70
2023/09/07 08:37:13;;;;;;;10.98;4.55;;;24.50;67.80;;;;;;9168657;19;20017;-71
2023/09/07 08:40:21;;;;;;;9.30;4.30;;;24.70;67.70;;;;;;9167872;19;20475;-70
2023/09/07 08:43:31;;;;;;;6.32;4.03;;;24.90;67.50;;;;;;9167380;19;20006;-69
2023/09/07 08:46:37;;;;;;;6.82;4.07;;;25.10;67.30;;;;;;9169015;19;20011;-70
2023/09/07 08:49:46;;;;;;;7.15;3.85;;;25.30;67.10;;;;;;9172093;19;20014;-69
2023/09/07 08:52:55;;;;;;;7.65;3.83;;;25.50;66.90;;;;;;9166084;19;20021;-71
2023/09/07 08:56:06;;;;;;;9.88;4.22;;;25.70;66.70;;;;;;9167900;19;20484;-70
2023/09/07 08:59:11;;;;;;;7.72;3.90;;;25.90;66.50;;;;;;9157569;19;20014;-70
2023/09/07 09:02:18;;;;;;;6.57;3.50;;;26.20;66.30;;;;;;9167361;19;20018;-67
2023/09/07 09:05:25;;;;;;;11.77;3.85;;;26.40;66.10;;;;;;9172140;19;20106;-70
2023/09/07 09:08:44;;;;;;;6.22;3.35;;;26.60;65.80;;;;;;9165984;19;20771;-71
2023/09/07 09:11:52;;;;;;;5.03;3.50;;;26.80;65.20;;;;;;9170081;19;20712;-71
2023/09/07 09:15:01;;;;;;;7.72;3.38;;;27.00;65.10;;;;;;9173033;19;20018;-70
2023/09/07 09:18:15;;;;;;;7.00;3.20;;;27.20;64.80;;;;;;9171601;19;20030;-72
2023/09/07 09:21:23;;;;;;;5.22;3.22;;;27.40;64.30;;;;;;9181015;19;20476;-71
2023/09/07 09:24:29;;;;;;;12.25;3.22;;;27.50;64.30;;;;;;9176964;19;20023;-70
2023/09/07 09:27:39;;;;;;;8.38;3.30;;;27.70;64.10;;;;;;9174679;19;20029;-72
2023/09/07 09:30:45;;;;;;;12.23;3.78;;;27.90;63.80;;;;;;9180393;19;20014;-73
2023/09/07 09:33:53;;;;;;;4.90;3.10;;;28.00;63.50;;;;;;9176772;19;20018;-70
2023/09/07 09:36:59;;;;;;;6.95;3.67;;;28.20;63.40;;;;;;9177179;19;20086;-68
2023/09/07 09:40:10;;;;;;;5.03;3.50;;;28.40;63.30;;;;;;9175086;19;20021;-68
2023/09/07 09:43:18;;;;;;;6.65;3.10;;;28.50;63.10;;;;;;9177776;19;20019;-70
2023/09/07 09:46:27;;;;;;;9.85;3.63;;;28.70;62.80;;;;;;9177505;19;20029;-69
2023/09/07 09:49:33;;;;;;;4.35;3.45;;;28.90;62.60;;;;;;9178481;19;20014;-69
2023/09/07 09:52:41;;;;;;;5.70;3.65;;;29.10;62.40;;;;;;9180889;19;20010;-69
2023/09/07 09:55:48;;;;;;;10.40;3.47;;;29.20;62.10;;;;;;9179473;19;20085;-67
2023/09/07 09:58:58;;;;;;;9.27;3.80;;;29.40;61.90;;;;;;9175811;19;20014;-68
2023/09/07 10:02:05;;;;;;;14.43;3.38;;;29.50;61.60;;;;;;9177948;19;20021;-67
2023/09/07 10:05:14;;;;;;;8.55;3.50;;;29.70;61.40;;;;;;9182193;19;20018;-67
2023/09/07 10:08:22;;;;;;;7.55;3.00;;;29.80;61.10;;;;;;9174448;19;20014;-66
2023/09/07 10:11:33;;;;;;;7.00;3.47;;;30.00;60.90;;;;;;9175907;19;20010;-67
2023/09/07 10:14:50;;;;;;;6.57;3.40;;;30.10;60.70;;;;;;9172396;19;20018;-66
2023/09/07 10:18:12;;;;;;;5.38;3.28;;;30.20;60.30;;;;;;9174345;19;20015;-67
2023/09/07 10:21:17;;;;;;;4.97;3.38;;;30.40;60.00;;;;;;9177025;19;20093;-68
2023/09/07 10:24:29;;;;;;;5.53;3.05;;;30.50;60.20;;;;;;9173070;19;20514;-67
2023/09/07 10:27:39;;;;;;;6.57;3.25;;;30.60;59.70;;;;;;9174432;19;20064;-68
2023/09/07 10:31:01;;;;;;;9.15;3.00;;;30.70;59.50;;;;;;9175030;19;20015;-66
2023/09/07 10:34:13;;;;;;;6.10;3.58;;;30.90;59.10;;;;;;9171990;19;20361;-67
2023/09/07 10:37:20;;;;;;;4.30;3.10;;;31.00;58.90;;;;;;9174597;19;20483;-66
2023/09/07 10:40:28;;;;;;;7.90;3.38;;;31.10;58.80;;;;;;9177033;19;20051;-67
2023/09/07 10:43:36;;;;;;;5.40;3.22;;;31.20;58.60;;;;;;9174699;19;20014;-68
2023/09/07 10:46:44;;;;;;;11.05;3.25;;;31.40;58.30;;;;;;9179352;19;20019;-67
2023/09/07 10:49:52;;;;;;;7.18;3.17;;;31.50;57.80;;;;;;9171520;19;20007;-66
2023/09/07 10:52:57;;;;;;;7.68;2.50;;;31.50;57.60;;;;;;9176790;19;20017;-71
2023/09/07 10:56:07;;;;;;;4.75;3.17;;;31.60;57.40;;;;;;9172434;19;20010;-67
2023/09/07 10:59:12;;;;;;;6.47;3.30;;;31.60;57.10;;;;;;9172416;19;20797;-68
2023/09/07 11:02:22;;;;;;;7.53;3.70;;;31.70;56.90;;;;;;9171708;19;20018;-68
2023/09/07 11:05:28;;;;;;;6.32;3.17;;;31.70;56.50;;;;;;9167870;19;20018;-68
2023/09/07 11:08:36;;;;;;;5.70;2.67;;;31.70;56.50;;;;;;9160234;19;20018;-68
2023/09/07 11:11:41;;;;;;;6.45;2.90;;;31.80;56.30;;;;;;9161484;19;20018;-68
2023/09/07 11:14:50;;;;;;;4.78;2.75;;;31.90;56.20;;;;;;9152377;19;20022;-68
2023/09/07 11:17:58;;;;;;;3.72;2.67;;;32.00;56.00;;;;;;9157168;19;20023;-69
2023/09/07 11:21:07;;;;;;;11.77;2.70;;;32.10;55.80;;;;;;9155356;19;20025;-68
2023/09/07 11:24:12;;;;;;;5.88;2.83;;;32.20;55.70;;;;;;9152703;19;20019;-68
2023/09/07 11:27:21;;;;;;;6.30;2.83;;;32.30;55.50;;;;;;9159239;19;20010;-69
2023/09/07 11:30:26;;;;;;;9.35;3.33;;;32.40;55.20;;;;;;9165839;19;20022;-69
2023/09/07 11:33:37;;;;;;;4.25;2.95;;;32.50;55.00;;;;;;9173977;19;20015;-70
2023/09/07 11:36:42;;;;;;;14.57;3.00;;;32.50;54.80;;;;;;9172093;19;20018;-69
2023/09/07 11:39:50;;;;;;;10.25;2.90;;;32.60;54.80;;;;;;9174961;19;20021;-68
2023/09/07 11:42:55;;;;;;;5.65;2.70;;;32.70;54.80;;;;;;9158770;19;20011;-68
2023/09/07 11:46:03;;;;;;;5.50;2.92;;;32.80;54.50;;;;;;9158410;19;20428;-68
2023/09/07 11:49:12;;;;;;;5.32;2.67;;;32.90;54.20;;;;;;9175626;19;20498;-68
2023/09/07 11:52:19;;;;;;;3.67;2.70;;;32.90;54.00;;;;;;9178685;19;20030;-67
2023/09/07 11:55:24;;;;;;;4.25;2.90;;;33.00;54.00;;;;;;9178314;19;20034;-67
2023/09/07 11:58:32;;;;;;;2.78;2.38;;;33.10;53.90;;;;;;9177003;19;20010;-67
2023/09/07 12:01:39;;;;;;;2.72;2.30;;;33.10;53.60;;;;;;9177363;19;20018;-68
2023/09/07 12:04:49;;;;;;;9.40;2.78;;;33.20;53.30;;;;;;9175762;19;20399;-68
2023/09/07 12:07:55;;;;;;;7.63;2.42;;;33.20;53.00;;;;;;9176488;19;20034;-67
2023/09/07 12:11:03;;;;;;;4.47;2.63;;;33.20;53.00;;;;;;9174545;19;20758;-68
2023/09/07 12:14:08;;;;;;;3.40;2.38;;;33.20;52.80;;;;;;9171978;19;20503;-67
2023/09/07 12:17:15;;;;;;;4.50;2.67;;;33.30;52.60;;;;;;9173697;19;20376;-67
2023/09/07 12:20:24;;;;;;;5.03;2.55;;;33.30;52.50;;;;;;9175652;19;20017;-68
2023/09/07 12:23:31;;;;;;;5.88;2.75;;;33.30;52.90;;;;;;9169989;19;20014;-67
2023/09/07 12:26:37;;;;;;;9.73;2.38;;;33.30;52.30;;;;;;9173551;19;20022;-69
2023/09/07 12:29:44;;;;;;;5.03;2.50;;;33.40;52.30;;;;;;9175026;19;20021;-68
2023/09/07 12:32:50;;;;;;;7.95;2.60;;;33.40;52.10;;;;;;9174317;19;20045;-69
2023/09/07 12:36:01;;;;;;;4.00;2.70;;;33.50;51.90;;;;;;9172180;19;20030;-68
2023/09/07 12:39:06;;;;;;;4.15;2.50;;;33.50;51.70;;;;;;9174609;19;20010;-68
2023/09/07 12:42:14;;;;;;;9.43;3.03;;;33.50;52.20;;;;;;9176321;19;20026;-67
2023/09/07 12:45:20;;;;;;;5.43;2.90;;;33.50;51.60;;;;;;9174461;19;20018;-66
2023/09/07 12:48:27;;;;;;;3.75;2.50;;;33.50;51.50;;;;;;9174208;19;20014;-67
2023/09/07 12:51:35;;;;;;;4.38;2.40;;;33.50;51.40;;;;;;9173843;19;20078;-68
2023/09/07 12:54:42;;;;;;;4.40;2.45;;;33.50;51.00;;;;;;9168846;19;20014;-67
2023/09/07 12:57:50;;;;;;;8.32;2.72;;;33.50;50.90;;;;;;9170907;19;20018;-67
2023/09/07 13:00:58;;;;;;;6.75;2.40;;;33.50;50.80;;;;;;9169648;19;20022;-67
2023/09/07 13:04:03;;;;;;;6.40;2.78;;;33.50;50.90;;;;;;9172376;19;20114;-66
2023/09/07 13:07:13;;;;;;;4.70;2.28;;;33.50;50.80;;;;;;9170409;19;20523;-66
2023/09/07 13:10:18;;;;;;;4.68;2.78;;;33.50;50.60;;;;;;9168417;19;20018;-70
2023/09/07 13:13:28;;;;;;;6.40;2.75;;;33.50;50.60;;;;;;9166049;19;20014;-68
2023/09/07 13:16:37;;;;;;;5.80;2.67;;;33.50;50.40;;;;;;9161289;19;20134;-67
2023/09/07 13:19:45;;;;;;;6.20;2.40;;;33.50;50.40;;;;;;9166828;19;20859;-67
2023/09/07 13:22:53;;;;;;;4.60;2.58;;;33.40;50.30;;;;;;9169751;19;20018;-67
2023/09/07 13:26:00;;;;;;;3.92;2.38;;;33.50;50.10;;;;;;9171180;19;20011;-69
2023/09/07 13:29:06;;;;;;;4.03;2.53;;;33.50;50.10;;;;;;9170129;19;20025;-67
2023/09/07 13:32:13;;;;;;;2.90;2.10;;;33.50;50.00;;;;;;9169684;19;20011;-68
2023/09/07 13:35:19;;;;;;;6.60;2.70;;;33.40;49.80;;;;;;9169071;19;20044;-67
2023/09/07 13:38:29;;;;;;;6.05;2.28;;;33.40;49.50;;;;;;9173628;19;20464;-67
2023/09/07 13:41:35;;;;;;;6.10;2.22;;;33.30;49.10;;;;;;9174093;19;20345;-66
2023/09/07 13:44:45;;;;;;;5.90;2.28;;;33.30;49.30;;;;;;9170286;19;20082;-69
2023/09/07 13:47:50;;;;;;;10.23;2.58;;;33.30;50.00;;;;;;9175799;19;20014;-67
2023/09/07 13:50:58;;;;;;;3.58;2.72;;;33.30;49.20;;;;;;9172139;19;20020;-67
2023/09/07 13:54:06;;;;;;;5.93;2.40;;;33.30;49.30;;;;;;9173209;19;20923;-68
2023/09/07 13:57:13;;;;;;;3.85;2.67;;;33.30;49.00;;;;;;9168500;19;20018;-67
2023/09/07 14:00:19;;;;;;;8.02;2.95;;;33.30;49.10;;;;;;9172098;19;20029;-66
2023/09/07 14:03:26;;;;;;;6.80;2.55;;;33.30;49.10;;;;;;9172075;19;20353;-67
2023/09/07 14:06:31;;;;;;;4.82;2.65;;;33.30;48.90;;;;;;9178838;19;20018;-67
2023/09/07 14:09:41;;;;;;;5.10;2.45;;;33.20;48.80;;;;;;9178732;19;20014;-67
2023/09/07 14:12:48;;;;;;;6.18;2.70;;;33.20;48.70;;;;;;9181958;19;20417;-67
2023/09/07 14:15:56;;;;;;;8.57;2.53;;;33.10;48.70;;;;;;9178459;19;20085;-66
2023/09/07 14:19:01;;;;;;;4.68;2.50;;;33.20;48.70;;;;;;9183869;19;20942;-67
2023/09/07 14:22:08;;;;;;;7.15;2.88;;;33.10;48.60;;;;;;9181533;19;20472;-68
2023/09/07 14:25:16;;;;;;;3.08;2.05;;;33.10;49.20;;;;;;9178332;19;20021;-67
2023/09/07 14:28:24;;;;;;;8.88;2.70;;;33.00;48.60;;;;;;9180136;19;20014;-68
2023/09/07 14:31:29;;;;;;;7.22;2.58;;;33.00;48.70;;;;;;9182497;19;20014;-67
2023/09/07 14:34:38;;;;;;;9.07;2.60;;;33.00;48.50;;;;;;9182543;19;20010;-66
2023/09/07 14:37:44;;;;;;;3.75;2.83;;;32.90;48.40;;;;;;9180342;19;20403;-66
2023/09/07 14:40:54;;;;;;;6.18;2.63;;;32.90;48.40;;;;;;9177436;19;20018;-66
2023/09/07 14:44:00;;;;;;;3.70;2.53;;;32.80;48.20;;;;;;9179850;19;20082;-66
2023/09/07 14:47:07;;;;;;;5.60;2.33;;;32.80;48.20;;;;;;9182161;19;20026;-65
2023/09/07 14:50:13;;;;;;;5.70;3.08;;;32.70;48.10;;;;;;9179362;19;20045;-66
2023/09/07 14:53:20;;;;;;;5.45;2.63;;;32.70;48.20;;;;;;9179855;19;20023;-67
2023/09/07 14:56:29;;;;;;;6.32;2.60;;;32.70;48.30;;;;;;9179186;19;20018;-67
2023/09/07 14:59:39;;;;;;;6.40;3.38;;;32.60;48.20;;;;;;9179374;19;20494;-66
2023/09/07 15:02:44;;;;;;;11.98;2.95;;;32.60;48.30;;;;;;9175493;19;20014;-66
2023/09/07 15:05:52;;;;;;;5.97;3.00;;;32.50;48.20;;;;;;9174122;19;20015;-67
2023/09/07 15:08:58;;;;;;;9.80;2.60;;;32.50;48.30;;;;;;9179843;19;20014;-67
2023/09/07 15:12:09;;;;;;;4.68;2.55;;;32.50;48.40;;;;;;9179343;19;20014;-67
2023/09/07 15:15:14;;;;;;;6.97;2.67;;;32.40;48.40;;;;;;9178107;19;20014;-67
2023/09/07 15:18:22;;;;;;;4.30;2.55;;;32.30;48.50;;;;;;9179938;19;20024;-68
2023/09/07 15:21:27;;;;;;;3.80;2.72;;;32.30;48.60;;;;;;9179863;19;20333;-68
2023/09/07 15:24:35;;;;;;;6.40;2.88;;;32.30;48.60;;;;;;9165723;19;20029;-67
2023/09/07 15:27:46;;;;;;;8.13;2.83;;;32.30;48.70;;;;;;9172527;19;20006;-66
2023/09/07 15:30:53;;;;;;;;;;;32.20;49.10;;;;;;9168818;19;20014;-67
2023/09/07 15:33:59;;;;;;;6.43;3.55;;;32.10;48.80;;;;;;9174956;19;19919;-66
2023/09/07 15:37:06;;;;;;;7.75;2.90;;;32.10;48.80;;;;;;9175382;19;20014;-67
2023/09/07 15:40:14;;;;;;;12.38;3.22;;;32.00;48.70;;;;;;9170743;19;20022;-67
2023/09/07 15:43:24;;;;;;;6.32;2.47;;;31.90;48.70;;;;;;9174411;19;20014;-67
2023/09/07 15:46:29;;;;;;;4.30;2.58;;;31.90;48.60;;;;;;9176062;19;20018;-68
2023/09/07 15:49:40;;;;;;;4.22;2.63;;;31.80;48.60;;;;;;9176777;19;20025;-68
2023/09/07 15:52:51;;;;;;;7.25;2.92;;;31.70;48.60;;;;;;9171098;19;20019;-66
2023/09/07 15:55:59;;;;;;;3.90;3.00;;;31.70;48.70;;;;;;9168196;19;20010;-66
2023/09/07 15:59:07;;;;;;;12.05;3.00;;;31.60;48.80;;;;;;9172263;19;20053;-67
2023/09/07 16:02:15;;;;;;;6.88;2.97;;;31.60;48.80;;;;;;9162669;19;20080;-66
2023/09/07 16:05:23;;;;;;;5.28;2.67;;;31.50;48.80;;;;;;9156582;19;20015;-66
2023/09/07 16:08:47;;;;;;;3.60;2.42;;;31.50;48.90;;;;;;9159460;19;20040;-68
2023/09/07 16:11:54;;;;;;;4.88;2.90;;;31.50;49.10;;;;;;9157927;19;20506;-66
2023/09/07 16:15:04;;;;;;;4.65;2.78;;;31.40;49.10;;;;;;9160285;19;20022;-67